sensor_id;sensor_type;location;lat;lon;timestamp;pressure;altitude;pressure_sealevel;temperature;humidity
28701;BME280;15877;52.344;16.790;2023-05-18T00:02:23;101643.16;;;12.80;57.99
28701;BME280;15877;52.344;16.790;2023-05-18T00:04:57;101647.66;;;12.79;57.63
28701;BME280;15877;52.344;16.790;2023-05-18T00:07:32;101650.38;;;12.77;57.40
28701;BME280;15877;52.344;16.790;2023-05-18T00:10:06;101646.95;;;12.77;58.07
28701;BME280;15877;52.344;16.790;2023-05-18T00:12:38;101644.85;;;12.76;58.21
28701;BME280;15877;52.344;16.790;2023-05-18T00:15:11;101641.42;;;12.73;57.69
28701;BME280;15877;52.344;16.790;2023-05-18T00:17:44;101641.80;;;12.72;57.58
28701;BME280;15877;52.344;16.790;2023-05-18T00:20:16;101633.95;;;12.69;57.68
28701;BME280;15877;52.344;16.790;2023-05-18T00:22:52;101632.60;;;12.67;57.88
28701;BME280;15877;52.344;16.790;2023-05-18T00:25:24;101626.92;;;12.66;58.04
28701;BME280;15877;52.344;16.790;2023-05-18T00:27:57;101627.95;;;12.63;58.38
28701;BME280;15877;52.344;16.790;2023-05-18T00:30:29;101628.08;;;12.58;58.35
28701;BME280;15877;52.344;16.790;2023-05-18T00:33:02;101626.83;;;12.54;58.25
28701;BME280;15877;52.344;16.790;2023-05-18T00:35:35;101623.20;;;12.52;57.85
28701;BME280;15877;52.344;16.790;2023-05-18T00:38:07;101619.05;;;12.49;58.24
28701;BME280;15877;52.344;16.790;2023-05-18T00:40:42;101622.05;;;12.47;58.14
28701;BME280;15877;52.344;16.790;2023-05-18T00:43:15;101614.02;;;12.45;58.23
28701;BME280;15877;52.344;16.790;2023-05-18T00:45:48;101613.14;;;12.42;58.24
28701;BME280;15877;52.344;16.790;2023-05-18T00:48:20;101610.10;;;12.37;58.41
28701;BME280;15877;52.344;16.790;2023-05-18T00:50:53;101615.02;;;12.34;58.78
28701;BME280;15877;52.344;16.790;2023-05-18T00:53:26;101614.11;;;12.30;58.66
28701;BME280;15877;52.344;16.790;2023-05-18T00:55:58;101600.83;;;12.19;58.67
28701;BME280;15877;52.344;16.790;2023-05-18T00:58:31;101617.75;;;12.25;58.66
28701;BME280;15877;52.344;16.790;2023-05-18T01:01:03;101615.39;;;12.21;58.91
28701;BME280;15877;52.344;16.790;2023-05-18T01:03:37;101620.05;;;12.17;58.83
28701;BME280;15877;52.344;16.790;2023-05-18T01:06:10;101627.82;;;12.14;58.69
28701;BME280;15877;52.344;16.790;2023-05-18T01:08:45;101627.45;;;12.08;58.48
28701;BME280;15877;52.344;16.790;2023-05-18T01:11:23;101634.97;;;12.07;57.65
28701;BME280;15877;52.344;16.790;2023-05-18T01:14:03;101609.34;;;11.87;57.09
28701;BME280;15877;52.344;16.790;2023-05-18T01:16:40;101645.76;;;12.02;57.61
28701;BME280;15877;52.344;16.790;2023-05-18T01:19:27;101646.44;;;11.98;57.21
28701;BME280;15877;52.344;16.790;2023-05-18T01:22:15;101652.53;;;11.98;57.52
28701;BME280;15877;52.344;16.790;2023-05-18T01:24:58;101662.98;;;11.98;58.08
28701;BME280;15877;52.344;16.790;2023-05-18T01:27:34;101667.09;;;11.95;58.39
28701;BME280;15877;52.344;16.790;2023-05-18T01:30:09;101671.59;;;11.94;58.45
28701;BME280;15877;52.344;16.790;2023-05-18T01:32:41;101667.03;;;11.91;58.28
28701;BME280;15877;52.344;16.790;2023-05-18T01:35:14;101667.44;;;11.89;57.86
28701;BME280;15877;52.344;16.790;2023-05-18T01:37:53;101671.39;;;11.91;58.26
28701;BME280;15877;52.344;16.790;2023-05-18T01:40:54;101676.13;;;11.90;58.96
28701;BME280;15877;52.344;16.790;2023-05-18T01:43:30;101683.86;;;11.86;59.23
28701;BME280;15877;52.344;16.790;2023-05-18T01:46:11;101684.54;;;11.83;59.16
28701;BME280;15877;52.344;16.790;2023-05-18T01:48:51;101685.61;;;11.80;58.83
28701;BME280;15877;52.344;16.790;2023-05-18T01:51:36;101688.55;;;11.77;58.99
28701;BME280;15877;52.344;16.790;2023-05-18T01:54:27;101685.32;;;11.74;58.93
28701;BME280;15877;52.344;16.790;2023-05-18T01:57:15;101683.36;;;11.68;58.72
28701;BME280;15877;52.344;16.790;2023-05-18T01:59:50;101675.67;;;11.63;58.40
28701;BME280;15877;52.344;16.790;2023-05-18T02:02:22;101672.82;;;11.63;58.66
28701;BME280;15877;52.344;16.790;2023-05-18T02:04:55;101668.11;;;11.57;58.70
28701;BME280;15877;52.344;16.790;2023-05-18T02:07:28;101674.84;;;11.56;58.88
28701;BME280;15877;52.344;16.790;2023-05-18T02:10:01;101678.56;;;11.53;58.95
28701;BME280;15877;52.344;16.790;2023-05-18T02:12:33;101677.34;;;11.51;59.01
28701;BME280;15877;52.344;16.790;2023-05-18T02:15:07;101679.79;;;11.48;59.08
28701;BME280;15877;52.344;16.790;2023-05-18T02:17:42;101684.59;;;11.45;58.94
28701;BME280;15877;52.344;16.790;2023-05-18T02:20:16;101679.83;;;11.43;59.06
28701;BME280;15877;52.344;16.790;2023-05-18T02:22:48;101689.77;;;11.41;59.22
28701;BME280;15877;52.344;16.790;2023-05-18T02:25:21;101693.09;;;11.37;59.38
28701;BME280;15877;52.344;16.790;2023-05-18T02:27:54;101693.22;;;11.34;59.49
28701;BME280;15877;52.344;16.790;2023-05-18T02:30:26;101697.56;;;11.31;59.74
28701;BME280;15877;52.344;16.790;2023-05-18T02:33:02;101695.20;;;11.28;59.72
28701;BME280;15877;52.344;16.790;2023-05-18T02:35:38;101691.02;;;11.23;59.80
28701;BME280;15877;52.344;16.790;2023-05-18T02:38:11;101689.02;;;11.20;59.45
28701;BME280;15877;52.344;16.790;2023-05-18T02:40:47;101690.09;;;11.17;59.46
28701;BME280;15877;52.344;16.790;2023-05-18T02:43:30;101691.27;;;11.13;59.68
28701;BME280;15877;52.344;16.790;2023-05-18T02:46:05;101697.70;;;11.11;59.86
28701;BME280;15877;52.344;16.790;2023-05-18T02:48:39;101695.95;;;11.07;59.81
28701;BME280;15877;52.344;16.790;2023-05-18T02:51:20;101698.31;;;11.06;59.82
28701;BME280;15877;52.344;16.790;2023-05-18T02:53:56;101695.65;;;11.03;59.82
28701;BME280;15877;52.344;16.790;2023-05-18T02:56:38;101697.28;;;11.00;59.65
28701;BME280;15877;52.344;16.790;2023-05-18T02:59:27;101695.69;;;10.98;59.65
28701;BME280;15877;52.344;16.790;2023-05-18T03:01:59;101697.65;;;10.97;59.79
28701;BME280;15877;52.344;16.790;2023-05-18T03:04:32;101703.44;;;10.97;60.02
28701;BME280;15877;52.344;16.790;2023-05-18T03:07:11;101708.41;;;10.96;60.03
28701;BME280;15877;52.344;16.790;2023-05-18T03:09:49;101716.13;;;10.93;60.11
28701;BME280;15877;52.344;16.790;2023-05-18T03:12:24;101720.77;;;10.89;59.87
28701;BME280;15877;52.344;16.790;2023-05-18T03:14:57;101703.52;;;10.82;59.85
28701;BME280;15877;52.344;16.790;2023-05-18T03:17:34;101714.21;;;10.90;59.27
28701;BME280;15877;52.344;16.790;2023-05-18T03:20:11;101713.08;;;10.88;59.24
28701;BME280;15877;52.344;16.790;2023-05-18T03:22:45;101712.54;;;10.86;59.35
28701;BME280;15877;52.344;16.790;2023-05-18T03:25:18;101715.84;;;10.84;59.49
28701;BME280;15877;52.344;16.790;2023-05-18T03:27:52;101716.87;;;10.84;59.45
28701;BME280;15877;52.344;16.790;2023-05-18T03:30:24;101720.55;;;10.83;59.81
28701;BME280;15877;52.344;16.790;2023-05-18T03:32:57;101709.00;;;10.72;59.89
28701;BME280;15877;52.344;16.790;2023-05-18T03:35:31;101713.73;;;10.68;59.91
28701;BME280;15877;52.344;16.790;2023-05-18T03:38:04;101726.70;;;10.72;60.20
28701;BME280;15877;52.344;16.790;2023-05-18T03:40:39;101729.58;;;10.70;60.19
28701;BME280;15877;52.344;16.790;2023-05-18T03:43:11;101724.80;;;10.69;60.42
28701;BME280;15877;52.344;16.790;2023-05-18T03:45:44;101722.20;;;10.67;60.53
28701;BME280;15877;52.344;16.790;2023-05-18T03:48:17;101724.17;;;10.65;60.62
28701;BME280;15877;52.344;16.790;2023-05-18T03:50:51;101729.21;;;10.64;60.64
28701;BME280;15877;52.344;16.790;2023-05-18T03:53:24;101735.20;;;10.61;60.78
28701;BME280;15877;52.344;16.790;2023-05-18T03:55:58;101739.03;;;10.58;60.93
28701;BME280;15877;52.344;16.790;2023-05-18T03:58:34;101743.96;;;10.56;61.13
28701;BME280;15877;52.344;16.790;2023-05-18T04:01:07;101746.38;;;10.55;61.25
28701;BME280;15877;52.344;16.790;2023-05-18T04:03:40;101748.05;;;10.53;61.40
28701;BME280;15877;52.344;16.790;2023-05-18T04:06:14;101749.98;;;10.54;61.36
28701;BME280;15877;52.344;16.790;2023-05-18T04:08:47;101752.28;;;10.52;61.66
28701;BME280;15877;52.344;16.790;2023-05-18T04:11:19;101757.04;;;10.54;61.61
28701;BME280;15877;52.344;16.790;2023-05-18T04:13:52;101756.64;;;10.54;61.54
28701;BME280;15877;52.344;16.790;2023-05-18T04:16:25;101758.67;;;10.53;61.82
28701;BME280;15877;52.344;16.790;2023-05-18T04:18:58;101762.73;;;10.51;62.03
28701;BME280;15877;52.344;16.790;2023-05-18T04:21:31;101767.05;;;10.49;62.14
28701;BME280;15877;52.344;16.790;2023-05-18T04:24:06;101766.94;;;10.48;62.15
28701;BME280;15877;52.344;16.790;2023-05-18T04:26:41;101768.19;;;10.47;62.12
28701;BME280;15877;52.344;16.790;2023-05-18T04:29:14;101772.58;;;10.48;62.17
28701;BME280;15877;52.344;16.790;2023-05-18T04:31:47;101778.20;;;10.49;62.33
28701;BME280;15877;52.344;16.790;2023-05-18T04:34:20;101784.77;;;10.51;62.54
28701;BME280;15877;52.344;16.790;2023-05-18T04:36:54;101779.52;;;10.47;62.98
28701;BME280;15877;52.344;16.790;2023-05-18T04:39:28;101784.54;;;10.54;63.24
28701;BME280;15877;52.344;16.790;2023-05-18T04:42:01;101788.88;;;10.57;63.57
28701;BME280;15877;52.344;16.790;2023-05-18T04:44:34;101785.10;;;10.62;63.51
28701;BME280;15877;52.344;16.790;2023-05-18T04:47:11;101791.33;;;10.66;63.59
28701;BME280;15877;52.344;16.790;2023-05-18T04:49:44;101791.73;;;10.70;63.84
28701;BME280;15877;52.344;16.790;2023-05-18T04:52:16;101779.66;;;10.66;63.58
28701;BME280;15877;52.344;16.790;2023-05-18T04:54:48;101793.85;;;10.75;62.50
28701;BME280;15877;52.344;16.790;2023-05-18T04:57:21;101800.04;;;10.82;61.80
28701;BME280;15877;52.344;16.790;2023-05-18T04:59:55;101804.56;;;10.84;62.35
28701;BME280;15877;52.344;16.790;2023-05-18T05:02:28;101806.69;;;10.87;62.88
28701;BME280;15877;52.344;16.790;2023-05-18T05:05:01;101789.80;;;10.86;62.52
28701;BME280;15877;52.344;16.790;2023-05-18T05:07:33;101796.94;;;10.91;62.28
28701;BME280;15877;52.344;16.790;2023-05-18T05:10:07;101799.46;;;10.95;62.25
28701;BME280;15877;52.344;16.790;2023-05-18T05:12:41;101812.12;;;11.06;62.88
28701;BME280;15877;52.344;16.790;2023-05-18T05:15:14;101812.58;;;11.13;62.32
28701;BME280;15877;52.344;16.790;2023-05-18T05:17:47;101808.30;;;11.18;62.81
28701;BME280;15877;52.344;16.790;2023-05-18T05:20:21;101804.83;;;11.24;62.98
28701;BME280;15877;52.344;16.790;2023-05-18T05:22:54;101795.05;;;11.24;63.17
28701;BME280;15877;52.344;16.790;2023-05-18T05:25:28;101807.52;;;11.35;63.04
28701;BME280;15877;52.344;16.790;2023-05-18T05:28:02;101811.09;;;11.41;63.75
28701;BME280;15877;52.344;16.790;2023-05-18T05:30:35;101812.92;;;11.51;63.22
28701;BME280;15877;52.344;16.790;2023-05-18T05:33:08;101817.06;;;11.55;63.19
28701;BME280;15877;52.344;16.790;2023-05-18T05:35:41;101818.04;;;11.55;63.40
28701;BME280;15877;52.344;16.790;2023-05-18T05:38:14;101821.20;;;11.66;62.94
28701;BME280;15877;52.344;16.790;2023-05-18T05:40:47;101818.81;;;11.70;63.14
28701;BME280;15877;52.344;16.790;2023-05-18T05:43:20;101819.15;;;11.71;63.55
28701;BME280;15877;52.344;16.790;2023-05-18T05:45:54;101816.10;;;11.77;63.45
28701;BME280;15877;52.344;16.790;2023-05-18T05:48:27;101815.09;;;11.89;62.58
28701;BME280;15877;52.344;16.790;2023-05-18T05:50:59;101812.98;;;11.94;62.22
28701;BME280;15877;52.344;16.790;2023-05-18T05:53:33;101820.00;;;12.00;62.35
28701;BME280;15877;52.344;16.790;2023-05-18T05:56:07;101826.45;;;12.11;60.90
28701;BME280;15877;52.344;16.790;2023-05-18T05:58:43;101825.48;;;12.19;60.90
28701;BME280;15877;52.344;16.790;2023-05-18T06:01:16;101814.65;;;12.17;60.00
28701;BME280;15877;52.344;16.790;2023-05-18T06:03:48;101826.58;;;12.29;59.15
28701;BME280;15877;52.344;16.790;2023-05-18T06:06:21;101826.89;;;12.34;57.61
28701;BME280;15877;52.344;16.790;2023-05-18T06:08:53;101825.77;;;12.38;57.01
28701;BME280;15877;52.344;16.790;2023-05-18T06:11:27;101824.01;;;12.41;56.42
28701;BME280;15877;52.344;16.790;2023-05-18T06:14:00;101812.98;;;12.42;56.31
28701;BME280;15877;52.344;16.790;2023-05-18T06:16:33;101820.31;;;12.54;55.75
28701;BME280;15877;52.344;16.790;2023-05-18T06:19:05;101805.05;;;12.57;55.91
28701;BME280;15877;52.344;16.790;2023-05-18T06:21:37;101820.21;;;12.64;55.67
28701;BME280;15877;52.344;16.790;2023-05-18T06:24:11;101804.10;;;12.59;55.74
28701;BME280;15877;52.344;16.790;2023-05-18T06:26:47;101816.14;;;12.71;54.80
28701;BME280;15877;52.344;16.790;2023-05-18T06:29:41;101815.79;;;12.81;54.36
28701;BME280;15877;52.344;16.790;2023-05-18T06:32:31;101820.11;;;12.93;54.30
28701;BME280;15877;52.344;16.790;2023-05-18T06:35:04;101823.16;;;13.03;53.44
28701;BME280;15877;52.344;16.790;2023-05-18T06:37:37;101822.60;;;13.04;52.30
28701;BME280;15877;52.344;16.790;2023-05-18T06:40:10;101821.48;;;13.12;51.62
28701;BME280;15877;52.344;16.790;2023-05-18T06:42:43;101824.05;;;13.07;53.25
28701;BME280;15877;52.344;16.790;2023-05-18T06:45:43;101828.21;;;13.24;53.74
28701;BME280;15877;52.344;16.790;2023-05-18T06:48:33;101831.52;;;13.34;52.93
28701;BME280;15877;52.344;16.790;2023-05-18T06:51:05;101833.71;;;13.38;51.51
28701;BME280;15877;52.344;16.790;2023-05-18T06:53:38;101829.83;;;13.44;50.96
28701;BME280;15877;52.344;16.790;2023-05-18T06:56:10;101830.73;;;13.49;50.32
28701;BME280;15877;52.344;16.790;2023-05-18T06:58:43;101821.91;;;13.43;50.09
28701;BME280;15877;52.344;16.790;2023-05-18T07:01:16;101836.63;;;13.49;51.25
28701;BME280;15877;52.344;16.790;2023-05-18T07:03:49;101840.71;;;13.52;51.43
28701;BME280;15877;52.344;16.790;2023-05-18T07:06:22;101843.81;;;13.47;50.85
28701;BME280;15877;52.344;16.790;2023-05-18T07:08:54;101843.39;;;13.61;50.37
28701;BME280;15877;52.344;16.790;2023-05-18T07:11:27;101826.17;;;13.64;51.22
28701;BME280;15877;52.344;16.790;2023-05-18T07:13:59;101843.73;;;13.79;51.50
28701;BME280;15877;52.344;16.790;2023-05-18T07:16:32;101845.63;;;13.83;51.12
28701;BME280;15877;52.344;16.790;2023-05-18T07:19:05;101846.23;;;13.88;50.87
28701;BME280;15877;52.344;16.790;2023-05-18T07:21:37;101847.58;;;13.92;50.33
28701;BME280;15877;52.344;16.790;2023-05-18T07:24:10;101846.52;;;13.99;49.45
28701;BME280;15877;52.344;16.790;2023-05-18T07:26:42;101842.30;;;14.08;50.26
28701;BME280;15877;52.344;16.790;2023-05-18T07:29:14;101843.08;;;14.12;49.64
28701;BME280;15877;52.344;16.790;2023-05-18T07:31:46;101843.33;;;14.20;49.73
28701;BME280;15877;52.344;16.790;2023-05-18T07:34:19;101842.64;;;14.23;49.01
28701;BME280;15877;52.344;16.790;2023-05-18T07:36:51;101837.92;;;14.28;47.22
28701;BME280;15877;52.344;16.790;2023-05-18T07:39:23;101834.05;;;14.38;48.26
28701;BME280;15877;52.344;16.790;2023-05-18T07:41:59;101833.70;;;14.45;48.36
28701;BME280;15877;52.344;16.790;2023-05-18T07:44:32;101832.77;;;14.52;47.71
28701;BME280;15877;52.344;16.790;2023-05-18T07:47:05;101829.47;;;14.60;47.78
28701;BME280;15877;52.344;16.790;2023-05-18T07:49:37;101838.20;;;14.60;46.39
28701;BME280;15877;52.344;16.790;2023-05-18T07:52:09;101837.94;;;14.62;46.30
28701;BME280;15877;52.344;16.790;2023-05-18T07:54:42;101837.29;;;14.56;45.56
28701;BME280;15877;52.344;16.790;2023-05-18T07:57:14;101839.53;;;14.68;45.81
28701;BME280;15877;52.344;16.790;2023-05-18T07:59:46;101830.65;;;14.67;47.37
28701;BME280;15877;52.344;16.790;2023-05-18T08:02:19;101842.85;;;14.85;45.78
28701;BME280;15877;52.344;16.790;2023-05-18T08:04:51;101841.52;;;14.89;46.44
28701;BME280;15877;52.344;16.790;2023-05-18T08:07:24;101847.02;;;14.85;47.43
28701;BME280;15877;52.344;16.790;2023-05-18T08:09:59;101841.84;;;14.94;48.95
28701;BME280;15877;52.344;16.790;2023-05-18T08:12:32;101843.70;;;15.07;48.39
28701;BME280;15877;52.344;16.790;2023-05-18T08:15:06;101844.04;;;15.02;46.25
28701;BME280;15877;52.344;16.790;2023-05-18T08:17:38;101833.55;;;15.10;45.10
28701;BME280;15877;52.344;16.790;2023-05-18T08:20:12;101836.20;;;15.23;46.53
28701;BME280;15877;52.344;16.790;2023-05-18T08:22:44;101837.00;;;15.29;46.30
28701;BME280;15877;52.344;16.790;2023-05-18T08:25:16;101837.05;;;15.31;44.99
28701;BME280;15877;52.344;16.790;2023-05-18T08:27:49;101836.52;;;15.33;44.66
28701;BME280;15877;52.344;16.790;2023-05-18T08:30:21;101833.81;;;15.45;45.72
28701;BME280;15877;52.344;16.790;2023-05-18T08:32:54;101832.33;;;15.55;46.08
28701;BME280;15877;52.344;16.790;2023-05-18T08:35:26;101831.68;;;15.59;46.91
28701;BME280;15877;52.344;16.790;2023-05-18T08:37:59;101830.63;;;15.65;45.47
28701;BME280;15877;52.344;16.790;2023-05-18T08:40:39;101825.23;;;15.74;45.25
28701;BME280;15877;52.344;16.790;2023-05-18T08:43:19;101820.77;;;15.85;46.07
28701;BME280;15877;52.344;16.790;2023-05-18T08:46:00;101818.70;;;15.86;45.36
28701;BME280;15877;52.344;16.790;2023-05-18T08:48:34;101823.70;;;15.94;45.27
28701;BME280;15877;52.344;16.790;2023-05-18T08:51:09;101825.38;;;16.01;44.52
28701;BME280;15877;52.344;16.790;2023-05-18T08:53:42;101822.31;;;16.08;44.04
28701;BME280;15877;52.344;16.790;2023-05-18T08:56:15;101820.27;;;16.14;43.63
28701;BME280;15877;52.344;16.790;2023-05-18T08:58:49;101823.12;;;16.19;45.64
28701;BME280;15877;52.344;16.790;2023-05-18T09:01:22;101821.09;;;16.22;44.72
28701;BME280;15877;52.344;16.790;2023-05-18T09:03:59;101814.98;;;16.32;45.98
28701;BME280;15877;52.344;16.790;2023-05-18T09:06:32;101812.30;;;16.39;44.80
28701;BME280;15877;52.344;16.790;2023-05-18T09:09:05;101810.05;;;16.46;42.89
28701;BME280;15877;52.344;16.790;2023-05-18T09:11:38;101809.49;;;16.56;43.76
28701;BME280;15877;52.344;16.790;2023-05-18T09:14:11;101805.45;;;16.51;44.51
28701;BME280;15877;52.344;16.790;2023-05-18T09:16:43;101800.42;;;16.64;43.51
28701;BME280;15877;52.344;16.790;2023-05-18T09:19:16;101799.80;;;16.70;43.79
28701;BME280;15877;52.344;16.790;2023-05-18T09:21:48;101799.51;;;16.89;44.82
28701;BME280;15877;52.344;16.790;2023-05-18T09:24:21;101772.65;;;16.84;43.65
28701;BME280;15877;52.344;16.790;2023-05-18T09:26:54;101793.81;;;17.06;44.11
28701;BME280;15877;52.344;16.790;2023-05-18T09:29:27;101796.33;;;17.18;44.31
28701;BME280;15877;52.344;16.790;2023-05-18T09:32:06;101797.04;;;17.26;45.67
28701;BME280;15877;52.344;16.790;2023-05-18T09:34:43;101779.59;;;17.29;47.06
28701;BME280;15877;52.344;16.790;2023-05-18T09:37:17;101782.82;;;17.45;46.79
28701;BME280;15877;52.344;16.790;2023-05-18T09:39:59;101793.05;;;17.62;45.58
28701;BME280;15877;52.344;16.790;2023-05-18T09:42:38;101775.52;;;17.66;43.57
28701;BME280;15877;52.344;16.790;2023-05-18T09:45:21;101792.23;;;17.83;44.84
28701;BME280;15877;52.344;16.790;2023-05-18T09:47:55;101792.80;;;17.94;45.47
28701;BME280;15877;52.344;16.790;2023-05-18T09:50:28;101792.34;;;17.96;43.50
28701;BME280;15877;52.344;16.790;2023-05-18T09:53:00;101790.27;;;17.98;41.45
28701;BME280;15877;52.344;16.790;2023-05-18T09:55:32;101795.34;;;18.09;42.75
28701;BME280;15877;52.344;16.790;2023-05-18T09:58:09;101793.64;;;18.15;43.23
28701;BME280;15877;52.344;16.790;2023-05-18T10:00:43;101793.70;;;18.27;43.53
28701;BME280;15877;52.344;16.790;2023-05-18T10:03:23;101796.92;;;18.33;43.64
28701;BME280;15877;52.344;16.790;2023-05-18T10:05:59;101794.81;;;18.32;43.19
28701;BME280;15877;52.344;16.790;2023-05-18T10:08:33;101797.46;;;18.32;42.51
28701;BME280;15877;52.344;16.790;2023-05-18T10:11:05;101797.29;;;18.48;43.56
28701;BME280;15877;52.344;16.790;2023-05-18T10:13:38;101796.16;;;18.62;43.08
28701;BME280;15877;52.344;16.790;2023-05-18T10:16:15;101786.38;;;18.65;42.66
28701;BME280;15877;52.344;16.790;2023-05-18T10:18:48;101799.69;;;18.69;40.63
28701;BME280;15877;52.344;16.790;2023-05-18T10:21:21;101799.14;;;18.78;41.78
28701;BME280;15877;52.344;16.790;2023-05-18T10:23:55;101797.28;;;18.84;40.45
28701;BME280;15877;52.344;16.790;2023-05-18T10:26:30;101785.91;;;18.84;41.41
28701;BME280;15877;52.344;16.790;2023-05-18T10:29:06;101790.61;;;18.78;43.77
28701;BME280;15877;52.344;16.790;2023-05-18T10:31:39;101794.06;;;18.78;43.02
28701;BME280;15877;52.344;16.790;2023-05-18T10:34:12;101791.23;;;18.68;42.19
28701;BME280;15877;52.344;16.790;2023-05-18T10:36:45;101786.59;;;18.48;42.08
28701;BME280;15877;52.344;16.790;2023-05-18T10:39:18;101785.50;;;18.66;41.44
28701;BME280;15877;52.344;16.790;2023-05-18T10:41:51;101785.92;;;18.83;42.33
28701;BME280;15877;52.344;16.790;2023-05-18T10:44:26;101789.35;;;18.97;41.63
28701;BME280;15877;52.344;16.790;2023-05-18T10:46:58;101780.91;;;19.07;40.89
28701;BME280;15877;52.344;16.790;2023-05-18T10:49:32;101769.48;;;19.06;41.79
28701;BME280;15877;52.344;16.790;2023-05-18T10:52:06;101788.70;;;19.06;41.33
28701;BME280;15877;52.344;16.790;2023-05-18T10:54:40;101787.48;;;19.04;40.56
28701;BME280;15877;52.344;16.790;2023-05-18T10:57:14;101778.04;;;19.28;42.43
28701;BME280;15877;52.344;16.790;2023-05-18T10:59:47;101778.81;;;19.44;42.96
28701;BME280;15877;52.344;16.790;2023-05-18T11:02:20;101778.86;;;19.62;42.92
28701;BME280;15877;52.344;16.790;2023-05-18T11:04:54;101782.76;;;19.80;43.45
28701;BME280;15877;52.344;16.790;2023-05-18T11:07:27;101781.09;;;19.71;43.66
28701;BME280;15877;52.344;16.790;2023-05-18T11:10:01;101782.15;;;19.59;42.99
28701;BME280;15877;52.344;16.790;2023-05-18T11:12:36;101777.02;;;19.52;43.09
28701;BME280;15877;52.344;16.790;2023-05-18T11:15:08;101779.13;;;19.79;43.67
28701;BME280;15877;52.344;16.790;2023-05-18T11:17:40;101778.23;;;19.94;43.73
28701;BME280;15877;52.344;16.790;2023-05-18T11:20:15;101778.32;;;19.96;42.48
28701;BME280;15877;52.344;16.790;2023-05-18T11:22:49;101780.77;;;19.85;42.22
28701;BME280;15877;52.344;16.790;2023-05-18T11:25:42;101781.23;;;19.70;43.52
28701;BME280;15877;52.344;16.790;2023-05-18T11:28:15;101775.55;;;19.61;42.33
28701;BME280;15877;52.344;16.790;2023-05-18T11:30:51;101775.05;;;19.58;43.81
28701;BME280;15877;52.344;16.790;2023-05-18T11:33:27;101771.98;;;19.34;44.65
28701;BME280;15877;52.344;16.790;2023-05-18T11:36:07;101774.01;;;19.20;43.77
28701;BME280;15877;52.344;16.790;2023-05-18T11:38:52;101765.31;;;19.09;43.96
28701;BME280;15877;52.344;16.790;2023-05-18T11:41:32;101775.50;;;19.32;43.66
28701;BME280;15877;52.344;16.790;2023-05-18T11:44:15;101775.66;;;19.42;44.12
28701;BME280;15877;52.344;16.790;2023-05-18T11:47:00;101776.77;;;19.74;44.78
28701;BME280;15877;52.344;16.790;2023-05-18T11:49:40;101774.41;;;19.99;44.96
28701;BME280;15877;52.344;16.790;2023-05-18T11:52:18;101772.37;;;20.28;43.62
28701;BME280;15877;52.344;16.790;2023-05-18T11:54:52;101773.51;;;20.53;42.67
28701;BME280;15877;52.344;16.790;2023-05-18T11:57:28;101772.09;;;20.68;42.56
28701;BME280;15877;52.344;16.790;2023-05-18T12:00:11;101769.91;;;20.76;39.51
28701;BME280;15877;52.344;16.790;2023-05-18T12:02:47;101773.64;;;20.82;40.09
28701;BME280;15877;52.344;16.790;2023-05-18T12:05:20;101770.30;;;20.59;40.45
28701;BME280;15877;52.344;16.790;2023-05-18T12:07:53;101773.80;;;20.78;41.15
28701;BME280;15877;52.344;16.790;2023-05-18T12:10:27;101769.71;;;20.96;42.30
28701;BME280;15877;52.344;16.790;2023-05-18T12:12:59;101769.98;;;21.14;41.50
28701;BME280;15877;52.344;16.790;2023-05-18T12:15:32;101767.23;;;21.31;40.61
28701;BME280;15877;52.344;16.790;2023-05-18T12:18:06;101763.34;;;21.41;39.70
28701;BME280;15877;52.344;16.790;2023-05-18T12:20:40;101766.46;;;21.59;41.16
28701;BME280;15877;52.344;16.790;2023-05-18T12:23:13;101768.50;;;21.48;41.56
28701;BME280;15877;52.344;16.790;2023-05-18T12:25:46;101767.79;;;21.28;41.48
28701;BME280;15877;52.344;16.790;2023-05-18T12:28:18;101771.34;;;21.33;41.68
28701;BME280;15877;52.344;16.790;2023-05-18T12:30:56;101756.00;;;21.12;41.08
28701;BME280;15877;52.344;16.790;2023-05-18T12:33:29;101766.02;;;21.15;39.70
28701;BME280;15877;52.344;16.790;2023-05-18T12:36:04;101765.38;;;21.18;40.27
28701;BME280;15877;52.344;16.790;2023-05-18T12:38:40;101763.27;;;21.29;40.16
28701;BME280;15877;52.344;16.790;2023-05-18T12:41:22;101756.56;;;21.32;39.14
28701;BME280;15877;52.344;16.790;2023-05-18T12:43:54;101762.77;;;21.34;39.34
28701;BME280;15877;52.344;16.790;2023-05-18T12:46:28;101746.64;;;21.26;39.13
28701;BME280;15877;52.344;16.790;2023-05-18T12:49:01;101757.77;;;21.35;38.83
28701;BME280;15877;52.344;16.790;2023-05-18T12:51:35;101752.43;;;21.45;40.95
28701;BME280;15877;52.344;16.790;2023-05-18T12:54:08;101747.17;;;21.52;40.43
28701;BME280;15877;52.344;16.790;2023-05-18T12:56:54;101753.84;;;21.65;41.30
28701;BME280;15877;52.344;16.790;2023-05-18T12:59:32;101750.83;;;21.73;38.80
28701;BME280;15877;52.344;16.790;2023-05-18T13:02:05;101746.55;;;21.76;38.03
28701;BME280;15877;52.344;16.790;2023-05-18T13:04:38;101752.52;;;21.89;38.88
28701;BME280;15877;52.344;16.790;2023-05-18T13:07:11;101751.16;;;22.05;38.75
28701;BME280;15877;52.344;16.790;2023-05-18T13:09:46;101754.14;;;21.88;40.66
28701;BME280;15877;52.344;16.790;2023-05-18T13:12:36;101750.72;;;21.55;39.09
28701;BME280;15877;52.344;16.790;2023-05-18T13:15:14;101748.66;;;21.24;39.15
28701;BME280;15877;52.344;16.790;2023-05-18T13:17:56;101742.52;;;21.21;39.97
28701;BME280;15877;52.344;16.790;2023-05-18T13:20:37;101743.06;;;21.40;40.26